Time;durP1;ratioP1;P1;durP2;ratioP2;P2;SDS_P1;SDS_P2;PMS_P1;PMS_P2;Temp;Humidity;BMP_temperature;BMP_pressure;BME280_temperature;BME280_humidity;BME280_pressure;Samples;Min_cycle;Max_cycle;Signal;HPM_P1;HPM_P2
2024/03/26 00:00:38;;;;;;;22.90;21.13;;;4.10;99.90;;;;;;4952207;28;20652;-70
2024/03/26 00:03:05;;;;;;;23.95;22.20;;;4.10;99.90;;;;;;4952244;28;20046;-69
2024/03/26 00:05:31;;;;;;;25.15;22.92;;;4.10;99.90;;;;;;4936394;28;20531;-69
2024/03/26 00:07:57;;;;;;;23.38;21.42;;;4.10;99.90;;;;;;4953458;28;20556;-69
2024/03/26 00:10:23;;;;;;;24.45;22.23;;;4.10;99.90;;;;;;4950317;28;20049;-67
2024/03/26 00:12:50;;;;;;;25.50;22.30;;;4.10;99.90;;;;;;4939748;28;20050;-67
2024/03/26 00:15:17;;;;;;;23.42;21.38;;;4.10;99.90;;;;;;4965237;28;20033;-69
2024/03/26 00:17:43;;;;;;;22.48;20.60;;;4.10;99.90;;;;;;4951338;28;20050;-69
2024/03/26 00:20:10;;;;;;;23.30;21.17;;;4.10;99.90;;;;;;4936572;28;20046;-69
2024/03/26 00:22:36;;;;;;;23.65;21.40;;;4.20;99.90;;;;;;4974286;28;20046;-67
2024/03/26 00:25:02;;;;;;;21.98;20.02;;;4.20;99.90;;;;;;4940735;28;20042;-68
2024/03/26 00:27:28;;;;;;;22.73;20.23;;;4.20;99.90;;;;;;4948933;28;20057;-67
2024/03/26 00:29:54;;;;;;;21.95;20.25;;;4.20;99.90;;;;;;4951839;28;20047;-68
2024/03/26 00:32:20;;;;;;;23.40;21.67;;;4.20;99.90;;;;;;4973047;28;20084;-68
2024/03/26 00:34:46;;;;;;;22.70;20.55;;;4.20;99.90;;;;;;4939680;28;20054;-67
2024/03/26 00:37:12;;;;;;;23.60;21.15;;;4.20;99.90;;;;;;4953292;28;20423;-70
2024/03/26 00:39:38;;;;;;;22.90;21.20;;;4.10;99.90;;;;;;4963521;28;20684;-68
2024/03/26 00:42:04;;;;;;;23.38;21.10;;;4.10;99.90;;;;;;4965177;28;20129;-69
2024/03/26 00:44:30;;;;;;;23.58;21.52;;;4.10;99.90;;;;;;4950282;28;20636;-68
2024/03/26 00:46:57;;;;;;;23.08;21.17;;;4.10;99.90;;;;;;4954481;28;20042;-69
2024/03/26 00:49:23;;;;;;;23.92;21.60;;;4.10;99.90;;;;;;4948770;28;20756;-67
2024/03/26 00:51:49;;;;;;;23.55;21.55;;;4.10;99.90;;;;;;4955453;28;20042;-70
2024/03/26 00:54:15;;;;;;;23.20;21.35;;;4.10;99.90;;;;;;4948492;28;20054;-68
2024/03/26 00:56:42;;;;;;;23.55;21.70;;;4.10;99.90;;;;;;4968919;28;20041;-69
2024/03/26 00:59:08;;;;;;;22.67;21.08;;;4.10;99.90;;;;;;4972822;28;20449;-68
2024/03/26 01:01:34;;;;;;;22.98;21.33;;;4.10;99.90;;;;;;4972289;28;20467;-69
2024/03/26 01:04:01;;;;;;;24.02;21.88;;;4.00;99.90;;;;;;4947729;28;20498;-70
2024/03/26 01:06:27;;;;;;;23.75;21.58;;;4.00;99.90;;;;;;4966123;28;20512;-69
2024/03/26 01:08:53;;;;;;;22.55;20.70;;;4.00;99.90;;;;;;4955334;28;20050;-67
2024/03/26 01:11:19;;;;;;;23.08;21.35;;;4.00;99.90;;;;;;4947013;28;20039;-69
2024/03/26 01:13:45;;;;;;;24.27;21.85;;;3.90;99.90;;;;;;4950976;28;20039;-69
2024/03/26 01:16:12;;;;;;;23.67;21.55;;;4.00;99.90;;;;;;4946866;28;20042;-69
2024/03/26 01:18:38;;;;;;;23.67;21.38;;;4.00;99.90;;;;;;4955385;28;20038;-69
2024/03/26 01:21:04;;;;;;;22.80;20.92;;;3.90;99.90;;;;;;4954451;28;20507;-70
2024/03/26 01:23:31;;;;;;;22.65;20.60;;;3.90;99.90;;;;;;4965549;28;20068;-70
2024/03/26 01:25:57;;;;;;;23.08;21.08;;;3.90;99.90;;;;;;4949177;28;20050;-68
2024/03/26 01:28:23;;;;;;;23.13;20.95;;;3.90;99.90;;;;;;4951336;28;20077;-67
2024/03/26 01:30:49;;;;;;;24.23;21.92;;;3.90;99.90;;;;;;4950970;28;20057;-67
2024/03/26 01:33:15;;;;;;;22.58;20.67;;;3.80;99.90;;;;;;4935716;28;20141;-69
2024/03/26 01:35:49;;;;;;;23.50;21.35;;;3.80;99.90;;;;;;4945783;28;20054;-68
2024/03/26 01:38:15;;;;;;;22.83;20.88;;;3.80;99.90;;;;;;4954540;28;20519;-70
2024/03/26 01:40:42;;;;;;;24.55;21.92;;;3.70;99.90;;;;;;4969243;28;20042;-69
2024/03/26 01:43:08;;;;;;;22.98;21.05;;;3.70;99.90;;;;;;4938946;28;20065;-70
2024/03/26 01:45:34;;;;;;;22.92;21.17;;;3.70;99.90;;;;;;4954118;28;20035;-69
2024/03/26 01:48:01;;;;;;;26.05;23.40;;;3.70;99.90;;;;;;4934415;28;20038;-69
2024/03/26 01:50:28;;;;;;;22.92;20.92;;;3.60;99.90;;;;;;4950939;28;20138;-69
2024/03/26 01:52:54;;;;;;;22.63;20.90;;;3.60;99.90;;;;;;4943144;28;20046;-69
2024/03/26 01:55:20;;;;;;;22.92;20.80;;;3.60;99.90;;;;;;4965061;28;20097;-69
2024/03/26 01:57:48;;;;;;;22.75;21.00;;;3.60;99.90;;;;;;4971232;28;20058;-69
2024/03/26 02:00:17;;;;;;;22.75;20.50;;;3.60;99.90;;;;;;4951712;28;20129;-69
2024/03/26 02:02:45;;;;;;;22.35;20.27;;;3.60;99.90;;;;;;4949454;28;20100;-69
2024/03/26 02:05:11;;;;;;;22.27;20.58;;;3.50;99.90;;;;;;4949194;28;20054;-69
2024/03/26 02:07:38;;;;;;;23.48;21.52;;;3.50;99.90;;;;;;4965236;28;20034;-69
2024/03/26 02:10:07;;;;;;;23.63;21.33;;;3.40;99.90;;;;;;4948269;28;20662;-69
2024/03/26 02:12:33;;;;;;;22.35;20.40;;;3.40;99.90;;;;;;4964614;28;20038;-70
2024/03/26 02:14:59;;;;;;;23.42;21.38;;;3.40;99.90;;;;;;4949580;28;20041;-69
2024/03/26 02:17:25;;;;;;;23.08;20.98;;;3.50;99.90;;;;;;4954309;28;20090;-69
2024/03/26 02:19:54;;;;;;;23.40;21.20;;;3.50;99.90;;;;;;4954344;28;20070;-69
2024/03/26 02:22:20;;;;;;;23.80;21.48;;;3.50;99.90;;;;;;4942535;28;20663;-69
2024/03/26 02:24:47;;;;;;;22.77;20.98;;;3.50;99.90;;;;;;4947917;28;20046;-70
2024/03/26 02:27:14;;;;;;;23.05;21.10;;;3.50;99.90;;;;;;4948675;28;20115;-69
2024/03/26 02:29:40;;;;;;;22.33;20.48;;;3.60;99.90;;;;;;4966081;28;20539;-69
2024/03/26 02:32:12;;;;;;;22.52;20.98;;;3.60;99.90;;;;;;4966732;28;20080;-68
2024/03/26 02:34:38;;;;;;;22.65;20.33;;;3.60;99.90;;;;;;4945415;28;20038;-69
2024/03/26 02:37:04;;;;;;;23.23;21.38;;;3.50;99.90;;;;;;4949771;28;20561;-68
2024/03/26 02:39:30;;;;;;;24.50;21.95;;;3.60;99.90;;;;;;4967722;28;20057;-67
2024/03/26 02:41:56;;;;;;;24.17;21.90;;;3.60;99.90;;;;;;4952784;28;20066;-70
2024/03/26 02:44:24;;;;;;;24.05;21.80;;;3.60;99.90;;;;;;4947224;28;20054;-67
2024/03/26 02:46:50;;;;;;;22.85;21.25;;;3.60;99.90;;;;;;4950297;28;20046;-69
2024/03/26 02:49:16;;;;;;;22.35;20.55;;;3.60;99.90;;;;;;4954359;28;20096;-69
2024/03/26 02:51:41;;;;;;;22.85;20.90;;;3.50;99.90;;;;;;4967580;28;20041;-69
2024/03/26 02:54:07;;;;;;;24.10;21.83;;;3.60;99.90;;;;;;4947782;28;20058;-69
2024/03/26 02:56:34;;;;;;;23.60;21.45;;;3.50;99.90;;;;;;4944829;28;20046;-69
2024/03/26 02:59:00;;;;;;;25.25;21.75;;;3.50;99.90;;;;;;4953983;28;20574;-67
2024/03/26 03:01:26;;;;;;;23.65;21.48;;;3.50;99.90;;;;;;4962355;28;20085;-69
2024/03/26 03:03:53;;;;;;;23.63;21.58;;;3.60;99.90;;;;;;4948856;28;20840;-68
2024/03/26 03:06:19;;;;;;;23.95;21.52;;;3.60;99.90;;;;;;4964532;28;20499;-68
2024/03/26 03:08:45;;;;;;;23.90;21.77;;;3.70;99.90;;;;;;4933201;28;20046;-68
2024/03/26 03:11:11;;;;;;;23.45;21.38;;;3.60;99.90;;;;;;4969461;28;20050;-70
2024/03/26 03:13:38;;;;;;;25.33;21.55;;;3.70;99.90;;;;;;4957100;28;20064;-68
2024/03/26 03:16:04;;;;;;;23.13;21.15;;;3.70;99.90;;;;;;4977298;28;20551;-70
2024/03/26 03:18:30;;;;;;;24.15;21.20;;;3.70;99.90;;;;;;4948174;28;20174;-69
2024/03/26 03:20:56;;;;;;;23.27;21.08;;;3.70;99.90;;;;;;4954763;28;20142;-70
2024/03/26 03:23:22;;;;;;;24.20;22.08;;;3.70;99.90;;;;;;4949948;28;20080;-69
2024/03/26 03:25:55;;;;;;;22.70;20.75;;;3.70;99.90;;;;;;4956865;28;20046;-69
2024/03/26 03:28:21;;;;;;;24.35;21.88;;;3.70;99.90;;;;;;4964927;28;20057;-68
2024/03/26 03:30:48;;;;;;;23.42;21.70;;;3.80;99.90;;;;;;4964717;28;20061;-69
2024/03/26 03:33:14;;;;;;;22.92;21.05;;;3.80;99.90;;;;;;4957548;28;20046;-70
2024/03/26 03:35:41;;;;;;;23.48;21.35;;;3.80;99.90;;;;;;4955034;28;20042;-70
2024/03/26 03:38:08;;;;;;;23.42;21.63;;;3.80;99.90;;;;;;4941609;28;20085;-69
2024/03/26 03:40:34;;;;;;;24.73;22.60;;;3.70;99.90;;;;;;4954646;28;20531;-69
2024/03/26 03:43:01;;;;;;;23.75;21.95;;;3.80;99.90;;;;;;4954803;28;20571;-69
2024/03/26 03:45:28;;;;;;;24.05;22.10;;;3.80;99.90;;;;;;4950624;28;20486;-69
2024/03/26 03:47:54;;;;;;;24.65;22.63;;;3.80;99.90;;;;;;4955705;28;20697;-69
2024/03/26 03:50:21;;;;;;;24.90;22.70;;;3.80;99.90;;;;;;4961889;28;20122;-68
2024/03/26 03:52:47;;;;;;;23.85;21.75;;;3.70;99.90;;;;;;4939478;28;20058;-69
2024/03/26 03:55:16;;;;;;;24.55;22.33;;;3.80;99.90;;;;;;4939087;28;20057;-70
2024/03/26 03:57:42;;;;;;;24.33;22.08;;;3.70;99.90;;;;;;4953859;28;20042;-69
2024/03/26 04:00:09;;;;;;;24.00;21.88;;;3.70;99.90;;;;;;4956689;28;20061;-70
2024/03/26 04:02:38;;;;;;;24.45;22.10;;;3.70;99.90;;;;;;4952502;28;20074;-67
2024/03/26 04:05:04;;;;;;;23.92;21.63;;;3.60;99.90;;;;;;4977357;28;20038;-68
2024/03/26 04:07:30;;;;;;;23.48;21.58;;;3.60;99.90;;;;;;4985033;28;20085;-67
2024/03/26 04:09:56;;;;;;;23.20;21.20;;;3.50;99.90;;;;;;4972216;28;20218;-67
2024/03/26 04:12:22;;;;;;;23.70;21.70;;;3.40;99.90;;;;;;4984721;28;20038;-68
2024/03/26 04:14:48;;;;;;;23.35;21.10;;;3.30;99.90;;;;;;4973659;28;20065;-68
2024/03/26 04:17:14;;;;;;;24.70;22.40;;;3.30;99.90;;;;;;4962031;28;20081;-68
2024/03/26 04:19:40;;;;;;;24.33;22.23;;;3.30;99.90;;;;;;4973717;28;20046;-68
2024/03/26 04:22:06;;;;;;;22.50;20.75;;;3.30;99.90;;;;;;4983158;28;20041;-68
2024/03/26 04:24:33;;;;;;;23.58;21.38;;;3.30;99.90;;;;;;4943221;28;20050;-70
2024/03/26 04:26:59;;;;;;;23.10;21.33;;;3.30;99.90;;;;;;4954158;28;20038;-69
2024/03/26 04:29:25;;;;;;;23.83;21.75;;;3.40;99.90;;;;;;4965046;28;20054;-67
2024/03/26 04:31:51;;;;;;;22.67;20.83;;;3.40;99.90;;;;;;4952820;28;20050;-69
2024/03/26 04:34:17;;;;;;;22.95;21.00;;;3.40;99.90;;;;;;4951299;28;20054;-70
2024/03/26 04:36:43;;;;;;;23.77;21.65;;;3.40;99.90;;;;;;4948323;28;20081;-69
2024/03/26 04:39:09;;;;;;;23.45;21.50;;;3.30;99.90;;;;;;4952190;28;20034;-69
2024/03/26 04:41:36;;;;;;;24.42;21.83;;;3.30;99.90;;;;;;4951242;28;20034;-70
2024/03/26 04:44:02;;;;;;;23.30;20.90;;;3.20;99.90;;;;;;4947566;28;20101;-69
2024/03/26 04:46:28;;;;;;;24.35;22.10;;;3.20;99.90;;;;;;4953407;28;20046;-69
2024/03/26 04:48:54;;;;;;;24.27;22.08;;;3.20;99.90;;;;;;4956153;28;20053;-70
2024/03/26 04:51:21;;;;;;;23.25;21.52;;;3.20;99.90;;;;;;4953915;28;20518;-70
2024/03/26 04:53:48;;;;;;;24.25;22.23;;;3.20;99.90;;;;;;4945429;28;20061;-69
2024/03/26 04:56:14;;;;;;;26.52;21.95;;;3.20;99.90;;;;;;4953204;28;20421;-69
2024/03/26 04:58:42;;;;;;;24.08;22.15;;;3.20;99.90;;;;;;4951109;28;20259;-69
2024/03/26 05:01:08;;;;;;;24.05;21.77;;;3.20;99.90;;;;;;4967885;28;20041;-69
2024/03/26 05:03:35;;;;;;;23.05;21.35;;;3.20;99.90;;;;;;4969731;28;20064;-69
2024/03/26 05:06:01;;;;;;;23.33;21.05;;;3.20;99.90;;;;;;4930966;28;20057;-70
2024/03/26 05:08:27;;;;;;;22.88;21.10;;;3.20;99.90;;;;;;4953216;28;20058;-69
2024/03/26 05:10:53;;;;;;;23.83;21.70;;;3.20;99.90;;;;;;4937746;28;20065;-69
2024/03/26 05:13:19;;;;;;;24.55;22.10;;;3.30;99.90;;;;;;4952847;28;20073;-67
2024/03/26 05:15:45;;;;;;;24.83;22.00;;;3.40;99.90;;;;;;4950859;28;20046;-69
2024/03/26 05:18:11;;;;;;;24.38;22.33;;;3.40;99.90;;;;;;4959291;28;20069;-68
2024/03/26 05:20:38;;;;;;;23.48;21.35;;;3.40;99.90;;;;;;4957573;28;20117;-69
2024/03/26 05:23:04;;;;;;;25.58;23.38;;;3.50;99.90;;;;;;4937754;28;20373;-68
2024/03/26 05:25:30;;;;;;;22.83;21.13;;;3.60;99.90;;;;;;4929381;28;20050;-69
2024/03/26 05:27:57;;;;;;;23.25;21.20;;;3.60;99.90;;;;;;4951798;28;20133;-69
2024/03/26 05:30:23;;;;;;;24.90;22.33;;;3.60;99.90;;;;;;4952448;28;20078;-68
2024/03/26 05:32:50;;;;;;;24.27;22.25;;;3.60;99.90;;;;;;4966469;28;20097;-70
2024/03/26 05:35:16;;;;;;;30.67;28.15;;;3.60;99.90;;;;;;4946451;28;20502;-69
2024/03/26 05:37:47;;;;;;;30.77;28.38;;;3.60;99.90;;;;;;4943930;28;20209;-69
2024/03/26 05:40:14;;;;;;;31.25;28.27;;;3.60;99.90;;;;;;4958310;28;20100;-69
2024/03/26 05:42:40;;;;;;;30.77;28.38;;;3.60;99.90;;;;;;4981628;28;20043;-69
2024/03/26 05:45:06;;;;;;;28.98;26.50;;;3.70;99.90;;;;;;4975115;28;20554;-70
2024/03/26 05:47:33;;;;;;;30.05;27.35;;;3.70;99.90;;;;;;4947479;28;20046;-69
2024/03/26 05:49:59;;;;;;;28.25;26.15;;;3.70;99.90;;;;;;4969725;28;20542;-70
2024/03/26 05:52:25;;;;;;;28.50;26.42;;;3.80;99.90;;;;;;4949686;28;20042;-68
2024/03/26 05:54:51;;;;;;;28.75;26.33;;;3.90;99.90;;;;;;4954311;28;20670;-69
2024/03/26 05:57:17;;;;;;;28.20;25.92;;;3.80;99.90;;;;;;4971910;28;20038;-70
2024/03/26 05:59:43;;;;;;;28.95;26.42;;;3.80;99.90;;;;;;4935191;28;20042;-70
2024/03/26 06:02:09;;;;;;;29.48;26.45;;;3.80;99.90;;;;;;4951415;28;20035;-67
2024/03/26 06:04:36;;;;;;;26.70;24.88;;;3.90;99.90;;;;;;4930201;28;20138;-70
2024/03/26 06:07:02;;;;;;;27.70;25.67;;;3.90;99.90;;;;;;4961708;28;20042;-68
2024/03/26 06:09:28;;;;;;;29.17;26.83;;;4.00;99.90;;;;;;4951767;28;20042;-69
2024/03/26 06:11:54;;;;;;;28.25;25.83;;;3.90;99.90;;;;;;4965638;28;20043;-70
2024/03/26 06:14:20;;;;;;;29.00;26.90;;;3.90;99.90;;;;;;4948927;28;20058;-68
2024/03/26 06:16:46;;;;;;;29.83;27.80;;;3.90;99.90;;;;;;4956543;28;20071;-69
2024/03/26 06:19:12;;;;;;;30.65;28.27;;;3.90;99.90;;;;;;4954729;28;20045;-68
2024/03/26 06:21:39;;;;;;;32.00;29.25;;;4.00;99.90;;;;;;4956482;28;20045;-69
2024/03/26 06:24:05;;;;;;;35.95;33.50;;;4.00;99.90;;;;;;4955554;28;20034;-70
2024/03/26 06:26:31;;;;;;;34.85;31.90;;;4.00;99.90;;;;;;4950730;28;20125;-69
2024/03/26 06:28:58;;;;;;;35.83;33.53;;;4.00;99.90;;;;;;4956411;28;20038;-69
2024/03/26 06:31:24;;;;;;;35.78;33.28;;;4.10;99.90;;;;;;4956420;28;20125;-69
2024/03/26 06:33:50;;;;;;;35.95;33.08;;;4.10;99.90;;;;;;4950359;28;20061;-68
2024/03/26 06:36:17;;;;;;;35.20;32.35;;;4.20;99.90;;;;;;4969107;28;20085;-69
2024/03/26 06:38:42;;;;;;;36.33;33.20;;;4.20;99.90;;;;;;4975966;28;20049;-69
2024/03/26 06:41:09;;;;;;;35.55;32.97;;;4.40;99.90;;;;;;4976114;28;20049;-70
2024/03/26 06:43:35;;;;;;;35.28;32.17;;;4.40;99.90;;;;;;4953922;28;20181;-70
2024/03/26 06:46:02;;;;;;;33.28;30.60;;;4.50;99.90;;;;;;4963132;28;20131;-69
2024/03/26 06:48:28;;;;;;;33.17;30.80;;;4.50;99.90;;;;;;4975461;28;20766;-69
2024/03/26 06:50:54;;;;;;;34.00;31.33;;;4.50;99.90;;;;;;4959614;28;20243;-70
2024/03/26 06:53:20;;;;;;;33.83;31.00;;;4.60;99.90;;;;;;4952791;28;21510;-69
2024/03/26 06:55:46;;;;;;;31.52;29.38;;;4.50;99.90;;;;;;4937172;28;20573;-69
2024/03/26 06:58:13;;;;;;;34.40;31.77;;;4.50;99.90;;;;;;4973995;28;20450;-67
2024/03/26 07:00:39;;;;;;;31.55;29.38;;;4.60;99.90;;;;;;4953556;28;20052;-69
2024/03/26 07:03:06;;;;;;;31.45;28.80;;;4.60;99.90;;;;;;4935394;28;20042;-69
2024/03/26 07:05:32;;;;;;;31.55;29.33;;;4.60;99.90;;;;;;4942196;28;20146;-69
2024/03/26 07:07:58;;;;;;;30.27;28.17;;;4.70;99.90;;;;;;4951132;28;20046;-69
2024/03/26 07:10:24;;;;;;;30.90;28.48;;;4.70;99.90;;;;;;4952811;28;20150;-70
2024/03/26 07:12:50;;;;;;;32.85;30.27;;;4.70;99.90;;;;;;4967424;28;20518;-70
2024/03/26 07:15:17;;;;;;;29.60;27.58;;;4.70;99.90;;;;;;4928867;28;20047;-69
2024/03/26 07:17:42;;;;;;;30.60;28.27;;;4.70;99.90;;;;;;4957555;28;20030;-69
2024/03/26 07:20:09;;;;;;;30.80;28.40;;;4.80;99.90;;;;;;4953823;28;20046;-70
2024/03/26 07:22:37;;;;;;;30.45;27.98;;;4.80;99.90;;;;;;4965708;28;20050;-69
2024/03/26 07:25:04;;;;;;;29.92;27.90;;;4.90;99.90;;;;;;4966086;28;20061;-70
2024/03/26 07:27:30;;;;;;;31.25;28.45;;;4.90;99.90;;;;;;4970692;28;20049;-68
2024/03/26 07:29:58;;;;;;;30.63;28.27;;;5.00;99.90;;;;;;4937854;28;20535;-70
2024/03/26 07:32:24;;;;;;;29.58;27.27;;;5.00;99.90;;;;;;4950266;28;20038;-69
2024/03/26 07:34:50;;;;;;;30.27;27.98;;;5.00;99.90;;;;;;4949680;28;20042;-71
2024/03/26 07:37:16;;;;;;;29.55;27.33;;;5.10;99.90;;;;;;4950862;28;20149;-69
2024/03/26 07:39:42;;;;;;;30.38;27.88;;;5.10;99.90;;;;;;4967877;28;20066;-67
2024/03/26 07:42:09;;;;;;;29.63;27.20;;;5.10;99.90;;;;;;4953356;28;20037;-70
2024/03/26 07:44:35;;;;;;;31.52;28.42;;;5.00;99.90;;;;;;4948474;28;21004;-70
2024/03/26 07:47:03;;;;;;;30.65;28.23;;;5.00;99.90;;;;;;4965262;28;20133;-70
2024/03/26 07:49:29;;;;;;;31.38;28.98;;;5.10;99.90;;;;;;4937477;28;20046;-69
2024/03/26 07:51:55;;;;;;;30.40;28.10;;;5.10;99.90;;;;;;4951817;28;20035;-69
2024/03/26 07:54:22;;;;;;;29.52;27.48;;;5.20;99.90;;;;;;4945332;28;20042;-68
2024/03/26 07:56:48;;;;;;;31.65;28.95;;;5.20;99.90;;;;;;4933079;28;20034;-70
2024/03/26 07:59:14;;;;;;;30.15;27.63;;;5.20;99.90;;;;;;4937181;28;20046;-70
2024/03/26 08:01:40;;;;;;;29.75;27.58;;;5.40;99.90;;;;;;4949726;28;20100;-70
2024/03/26 08:04:06;;;;;;;30.65;28.10;;;5.60;99.90;;;;;;4966852;28;20326;-70
2024/03/26 08:06:32;;;;;;;30.75;28.52;;;5.80;99.90;;;;;;4933742;28;20049;-70
2024/03/26 08:08:59;;;;;;;29.67;27.48;;;6.00;99.90;;;;;;4972571;28;20076;-67
2024/03/26 08:11:25;;;;;;;31.40;28.98;;;6.00;99.90;;;;;;4954325;28;20046;-68
2024/03/26 08:13:51;;;;;;;31.00;28.27;;;6.10;99.90;;;;;;4967949;28;20116;-69
2024/03/26 08:16:18;;;;;;;31.13;28.85;;;6.20;99.90;;;;;;4952712;28;20049;-68
2024/03/26 08:18:44;;;;;;;33.05;29.33;;;6.10;99.90;;;;;;4956005;28;20054;-70
2024/03/26 08:21:10;;;;;;;29.85;27.50;;;6.30;99.90;;;;;;4942082;28;20069;-70
2024/03/26 08:23:36;;;;;;;30.45;28.15;;;6.30;99.90;;;;;;4950052;28;20126;-71
2024/03/26 08:26:02;;;;;;;30.02;27.73;;;6.40;99.90;;;;;;4972775;28;20089;-70
2024/03/26 08:28:28;;;;;;;29.83;27.77;;;6.50;99.90;;;;;;4955603;28;20826;-71
2024/03/26 08:30:54;;;;;;;29.85;27.40;;;6.50;99.90;;;;;;4955556;28;21274;-70
2024/03/26 08:33:20;;;;;;;29.58;27.13;;;6.60;99.90;;;;;;4961006;28;20058;-70
2024/03/26 08:35:46;;;;;;;29.67;27.40;;;6.70;99.90;;;;;;4962984;28;20054;-70
2024/03/26 08:38:13;;;;;;;28.65;26.45;;;6.70;99.90;;;;;;4956836;28;20084;-70
2024/03/26 08:40:40;;;;;;;31.88;28.85;;;6.90;99.90;;;;;;4940839;28;20580;-69
2024/03/26 08:43:07;;;;;;;30.23;27.73;;;6.90;99.90;;;;;;4985734;28;20058;-71
2024/03/26 08:45:39;;;;;;;31.02;28.60;;;6.90;99.90;;;;;;4943344;28;20034;-70
2024/03/26 08:48:06;;;;;;;32.03;29.23;;;6.80;99.90;;;;;;4951414;28;20058;-70
2024/03/26 08:50:32;;;;;;;29.92;27.33;;;7.10;99.90;;;;;;4949352;28;20699;-68
2024/03/26 08:52:58;;;;;;;31.80;29.02;;;7.10;99.90;;;;;;4926637;28;20073;-71
2024/03/26 08:55:25;;;;;;;30.85;28.52;;;7.20;99.90;;;;;;4956509;28;20049;-69
2024/03/26 08:57:51;;;;;;;31.92;29.20;;;7.20;99.90;;;;;;4949351;28;20050;-71
2024/03/26 09:00:18;;;;;;;31.08;28.15;;;7.20;99.90;;;;;;4952677;28;20639;-68
2024/03/26 09:02:44;;;;;;;29.58;27.27;;;7.30;99.90;;;;;;4949091;28;20046;-70
2024/03/26 09:05:10;;;;;;;29.90;27.65;;;7.40;99.90;;;;;;4946111;28;20034;-70
2024/03/26 09:07:36;;;;;;;29.48;27.45;;;7.50;99.90;;;;;;4930548;28;20050;-70
2024/03/26 09:10:06;;;;;;;30.33;28.08;;;7.50;99.90;;;;;;4954479;28;20661;-70
2024/03/26 09:12:36;;;;;;;32.95;30.60;;;7.50;99.90;;;;;;4946798;28;20548;-70
2024/03/26 09:15:02;;;;;;;31.67;29.27;;;7.60;99.90;;;;;;4943907;28;20603;-70
2024/03/26 09:17:29;;;;;;;31.98;29.77;;;7.70;99.90;;;;;;4969409;28;20049;-70
2024/03/26 09:19:55;;;;;;;33.15;30.85;;;7.90;99.90;;;;;;4937119;28;20223;-68
2024/03/26 09:22:21;;;;;;;33.85;31.13;;;7.90;99.90;;;;;;4944479;28;20058;-69
2024/03/26 09:24:47;;;;;;;31.35;28.92;;;8.00;99.90;;;;;;4944619;28;20049;-68
2024/03/26 09:27:13;;;;;;;30.73;28.33;;;7.90;99.90;;;;;;4958707;28;20050;-71
2024/03/26 09:29:39;;;;;;;30.30;28.00;;;8.10;99.90;;;;;;4964442;28;20562;-69
2024/03/26 09:32:08;;;;;;;31.73;29.17;;;8.10;99.90;;;;;;4953110;28;20031;-69
2024/03/26 09:34:38;;;;;;;31.00;28.75;;;8.00;99.90;;;;;;4958765;28;20057;-69
2024/03/26 09:37:06;;;;;;;31.33;28.98;;;7.90;99.90;;;;;;4926578;28;20050;-70
2024/03/26 09:39:33;;;;;;;31.30;29.00;;;7.90;99.90;;;;;;4948264;28;20069;-68
2024/03/26 09:42:03;;;;;;;31.40;28.98;;;7.90;99.90;;;;;;4949236;28;20501;-70
2024/03/26 09:44:33;;;;;;;30.15;28.05;;;8.00;99.90;;;;;;4954684;28;20662;-70
2024/03/26 09:47:01;;;;;;;30.95;28.33;;;8.10;99.90;;;;;;4926058;28;20161;-69
2024/03/26 09:49:28;;;;;;;30.55;28.15;;;8.20;99.90;;;;;;4947701;28;20065;-68
2024/03/26 09:51:57;;;;;;;34.10;28.85;;;8.30;99.90;;;;;;4958586;28;20046;-68
2024/03/26 09:54:26;;;;;;;30.35;28.13;;;8.40;99.90;;;;;;4944182;28;20043;-68
2024/03/26 09:56:53;;;;;;;31.80;29.05;;;8.60;99.90;;;;;;4951000;28;20042;-70
2024/03/26 09:59:19;;;;;;;30.00;27.60;;;8.70;99.90;;;;;;4967805;28;20050;-69
2024/03/26 10:01:47;;;;;;;29.38;27.15;;;8.50;99.90;;;;;;4952804;28;20046;-69
2024/03/26 10:04:13;;;;;;;31.50;28.98;;;8.30;99.90;;;;;;4946289;28;20143;-69
2024/03/26 10:06:43;;;;;;;29.23;26.83;;;8.20;99.90;;;;;;4943289;28;20061;-69
2024/03/26 10:09:11;;;;;;;30.77;28.10;;;8.30;99.90;;;;;;4950868;28;20038;-70
2024/03/26 10:11:37;;;;;;;29.38;26.70;;;8.30;99.90;;;;;;4962625;28;20070;-68
2024/03/26 10:14:03;;;;;;;29.70;27.20;;;8.60;99.90;;;;;;4967703;28;20271;-70
2024/03/26 10:16:29;;;;;;;30.90;28.35;;;8.60;99.90;;;;;;4968371;28;20038;-70
2024/03/26 10:18:55;;;;;;;28.70;26.23;;;8.40;99.90;;;;;;4952840;28;20046;-70
2024/03/26 10:21:22;;;;;;;30.15;27.75;;;8.30;99.90;;;;;;4945492;28;20042;-69
2024/03/26 10:23:47;;;;;;;30.55;28.35;;;8.40;99.90;;;;;;4965773;28;20120;-70
2024/03/26 10:26:14;;;;;;;31.50;29.00;;;8.40;99.90;;;;;;4951903;28;20125;-69
2024/03/26 10:28:40;;;;;;;30.13;27.95;;;8.30;99.90;;;;;;4933978;28;20058;-69
2024/03/26 10:31:06;;;;;;;28.42;26.02;;;8.30;99.90;;;;;;4949724;28;20053;-70
2024/03/26 10:33:32;;;;;;;28.38;26.23;;;8.50;99.90;;;;;;4947479;28;20063;-69
2024/03/26 10:36:02;;;;;;;29.50;27.13;;;8.50;99.90;;;;;;4958204;28;20051;-70
2024/03/26 10:38:32;;;;;;;28.95;26.55;;;8.50;99.90;;;;;;4966482;28;20384;-70
2024/03/26 10:41:05;;;;;;;30.02;27.48;;;8.60;99.90;;;;;;4962511;28;20069;-70
2024/03/26 10:43:32;;;;;;;31.13;28.83;;;8.70;99.90;;;;;;4947596;28;20046;-70
2024/03/26 10:46:00;;;;;;;32.25;29.67;;;8.70;99.90;;;;;;4964589;28;20093;-70
2024/03/26 10:48:30;;;;;;;31.52;29.15;;;8.80;99.90;;;;;;4966508;28;20046;-69
2024/03/26 10:50:58;;;;;;;33.00;30.13;;;8.80;99.90;;;;;;4948443;28;20054;-69
2024/03/26 10:53:25;;;;;;;30.85;28.33;;;8.70;99.90;;;;;;4945745;28;20546;-69
2024/03/26 10:55:52;;;;;;;30.85;28.45;;;8.90;99.90;;;;;;4937403;28;20429;-70
2024/03/26 10:58:18;;;;;;;30.27;28.08;;;9.00;99.90;;;;;;4967240;28;20122;-69
2024/03/26 11:00:47;;;;;;;30.50;28.10;;;9.20;99.90;;;;;;4945992;28;20132;-69
2024/03/26 11:03:15;;;;;;;29.42;27.15;;;9.20;99.90;;;;;;4949561;28;20054;-70
2024/03/26 11:05:41;;;;;;;30.80;28.42;;;9.10;99.90;;;;;;4938045;28;20050;-70
2024/03/26 11:08:17;;;;;;;29.73;27.42;;;9.00;99.90;;;;;;4966282;28;20078;-69
2024/03/26 11:11:02;;;;;;;30.70;28.40;;;9.30;99.90;;;;;;4946756;28;20105;-70
2024/03/26 11:13:30;;;;;;;31.05;28.55;;;9.40;99.90;;;;;;4947997;28;20118;-69
2024/03/26 11:15:56;;;;;;;31.48;28.73;;;9.30;99.90;;;;;;4941923;28;20052;-70
2024/03/26 11:18:31;;;;;;;31.83;28.92;;;9.40;99.90;;;;;;4963758;28;20074;-69
2024/03/26 11:21:05;;;;;;;30.67;27.77;;;9.50;99.90;;;;;;4962632;28;20691;-70
2024/03/26 11:23:42;;;;;;;32.08;29.33;;;9.30;99.90;;;;;;4961144;28;20046;-70
2024/03/26 11:26:23;;;;;;;30.30;27.95;;;9.30;99.90;;;;;;4949319;28;20046;-69
2024/03/26 11:28:49;;;;;;;30.90;28.52;;;9.20;99.90;;;;;;4944016;28;20054;-69
2024/03/26 11:31:19;;;;;;;31.48;28.80;;;9.30;99.90;;;;;;4955950;28;20680;-70
2024/03/26 11:33:52;;;;;;;31.75;29.10;;;9.30;99.90;;;;;;4945807;28;20105;-69
2024/03/26 11:36:19;;;;;;;30.40;27.60;;;9.30;99.90;;;;;;4963321;28;20047;-71
2024/03/26 11:38:48;;;;;;;29.75;27.35;;;9.40;99.90;;;;;;4962628;28;20065;-70
2024/03/26 11:41:15;;;;;;;31.98;29.05;;;9.50;99.90;;;;;;4963815;28;20046;-71
2024/03/26 11:43:41;;;;;;;31.50;29.00;;;9.40;99.90;;;;;;4964014;28;20392;-68
2024/03/26 11:46:08;;;;;;;30.85;28.45;;;9.30;99.90;;;;;;4962601;28;20941;-69
2024/03/26 11:48:34;;;;;;;31.70;29.08;;;9.30;99.90;;;;;;4965963;28;20566;-69
2024/03/26 11:51:00;;;;;;;31.48;28.27;;;9.00;99.90;;;;;;4967685;28;20531;-70
2024/03/26 11:53:27;;;;;;;34.33;30.90;;;9.10;99.90;;;;;;4954096;28;20034;-70
2024/03/26 11:55:53;;;;;;;34.05;30.55;;;9.20;99.90;;;;;;4958108;28;21067;-71
2024/03/26 11:58:26;;;;;;;32.15;29.52;;;9.30;99.90;;;;;;4971250;28;20577;-69
2024/03/26 12:00:53;;;;;;;32.42;29.27;;;9.50;99.90;;;;;;4953448;28;20119;-68
2024/03/26 12:03:19;;;;;;;30.08;27.75;;;9.30;99.90;;;;;;4971063;28;20039;-68
2024/03/26 12:05:46;;;;;;;32.33;29.42;;;9.30;99.90;;;;;;4965363;28;20049;-70
2024/03/26 12:08:12;;;;;;;31.48;28.88;;;9.40;99.90;;;;;;4955290;28;20072;-70
2024/03/26 12:10:38;;;;;;;31.73;29.40;;;9.40;99.90;;;;;;4972275;28;20049;-70
2024/03/26 12:13:04;;;;;;;31.83;29.38;;;9.40;99.90;;;;;;4973746;28;20601;-70
2024/03/26 12:15:31;;;;;;;33.10;30.55;;;9.40;99.90;;;;;;4963698;28;20050;-69
2024/03/26 12:17:57;;;;;;;32.00;29.60;;;9.40;99.90;;;;;;4967219;28;20550;-69
2024/03/26 12:20:26;;;;;;;31.77;29.23;;;9.30;99.90;;;;;;4967411;28;20890;-68
2024/03/26 12:22:54;;;;;;;30.85;28.50;;;9.30;99.90;;;;;;4943397;28;20585;-69
2024/03/26 12:25:20;;;;;;;32.55;30.25;;;9.20;99.90;;;;;;4952284;28;20038;-70
2024/03/26 12:27:46;;;;;;;33.17;30.65;;;9.20;99.90;;;;;;4954856;28;20050;-69
2024/03/26 12:30:12;;;;;;;33.00;30.23;;;9.30;99.90;;;;;;4965259;28;20066;-69
2024/03/26 12:32:38;;;;;;;30.45;28.20;;;9.20;99.90;;;;;;4967905;28;20047;-70